createdAt,value
2022-09-12T00:02:04.284Z,81.51
2022-09-12T00:04:31.501Z,82.10
2022-09-12T00:06:58.669Z,81.46
2022-09-12T00:09:25.919Z,81.13
2022-09-12T00:11:53.251Z,81.65
2022-09-12T00:14:20.510Z,81.26
2022-09-12T00:16:47.752Z,81.74
2022-09-12T00:19:15.299Z,82.40
2022-09-12T00:21:42.882Z,82.09
2022-09-12T00:24:11.479Z,82.18
2022-09-12T00:26:38.676Z,82.46
2022-09-12T00:29:05.951Z,83.17
2022-09-12T00:31:33.309Z,84.30
2022-09-12T00:34:01.633Z,83.83
2022-09-12T00:36:30.366Z,84.29
2022-09-12T00:38:58.163Z,85.00
2022-09-12T00:41:37.018Z,85.03
2022-09-12T00:44:24.268Z,84.77
2022-09-12T00:46:57.150Z,85.02
2022-09-12T00:49:31.004Z,85.57
2022-09-12T00:52:08.453Z,84.72
2022-09-12T00:54:43.914Z,84.92
2022-09-12T00:57:13.187Z,85.33
2022-09-12T00:59:48.797Z,85.09
2022-09-12T01:02:17.208Z,85.69
2022-09-12T01:04:44.752Z,85.58
2022-09-12T01:07:12.859Z,85.12
2022-09-12T01:09:42.044Z,85.07
2022-09-12T01:12:10.081Z,85.31
2022-09-12T01:14:37.725Z,85.41
2022-09-12T01:17:04.949Z,85.86
2022-09-12T01:19:43.901Z,85.90
2022-09-12T01:22:29.640Z,85.43
2022-09-12T01:25:05.660Z,85.63
2022-09-12T01:28:06.895Z,86.00
2022-09-12T01:31:00.929Z,85.51
2022-09-12T01:33:30.905Z,85.74
2022-09-12T01:36:17.136Z,86.14
2022-09-12T01:38:53.183Z,85.89
2022-09-12T01:41:26.132Z,86.41
2022-09-12T01:44:19.681Z,86.96
2022-09-12T01:47:12.767Z,87.03
2022-09-12T01:49:56.154Z,86.70
2022-09-12T01:52:29.673Z,87.29
2022-09-12T01:54:56.998Z,86.71
2022-09-12T01:57:32.209Z,85.88
2022-09-12T02:00:04.261Z,86.79
2022-09-12T02:02:54.740Z,87.22
2022-09-12T02:05:38.262Z,87.26
2022-09-12T02:08:13.925Z,87.26
2022-09-12T02:10:47.801Z,87.45
2022-09-12T02:13:34.733Z,86.88
2022-09-12T02:16:08.632Z,87.16
2022-09-12T02:18:44.717Z,87.08
2022-09-12T02:21:12.461Z,87.30
2022-09-12T02:23:44.923Z,87.35
2022-09-12T02:26:27.531Z,87.33
2022-09-12T02:28:54.817Z,87.91
2022-09-12T02:31:31.523Z,87.82
2022-09-12T02:34:34.736Z,87.89
2022-09-12T02:37:11.073Z,88.58
2022-09-12T02:39:41.101Z,88.40
2022-09-12T02:42:10.617Z,89.07
2022-09-12T02:44:38.332Z,88.76
2022-09-12T02:47:22.309Z,88.70
2022-09-12T02:49:49.659Z,87.90
2022-09-12T02:52:17.623Z,87.53
2022-09-12T02:54:45.439Z,87.87
2022-09-12T02:57:21.876Z,87.90
2022-09-12T02:59:53.646Z,88.63
2022-09-12T03:02:28.245Z,89.45
2022-09-12T03:05:33.025Z,88.92
2022-09-12T03:08:17.469Z,89.23
2022-09-12T03:11:21.159Z,88.87
2022-09-12T03:14:01.954Z,89.25
2022-09-12T03:16:41.607Z,88.57
2022-09-12T03:19:34.216Z,89.01
2022-09-12T03:22:07.193Z,88.52
2022-09-12T03:24:49.425Z,89.12
2022-09-12T03:27:22.383Z,88.64
2022-09-12T03:29:51.332Z,88.49
2022-09-12T03:32:18.549Z,88.25
2022-09-12T03:34:45.741Z,88.62
2022-09-12T03:37:12.945Z,88.57
2022-09-12T03:39:40.338Z,88.72
2022-09-12T03:42:07.675Z,88.28
2022-09-12T03:44:34.939Z,88.78
2022-09-12T03:47:02.160Z,89.13
2022-09-12T03:49:29.333Z,88.86
2022-09-12T03:51:56.515Z,88.39
2022-09-12T03:54:23.731Z,88.28
2022-09-12T03:56:50.905Z,88.43
2022-09-12T03:59:18.098Z,88.37
2022-09-12T04:01:45.247Z,88.39
2022-09-12T04:04:12.433Z,88.05
2022-09-12T04:06:39.604Z,88.36
2022-09-12T04:09:06.811Z,88.27
2022-09-12T04:11:35.782Z,88.53
2022-09-12T04:14:03.047Z,88.20
2022-09-12T04:16:30.300Z,88.02
2022-09-12T04:18:57.551Z,87.66
2022-09-12T04:21:25.119Z,88.89
2022-09-12T04:23:52.298Z,88.51
2022-09-12T04:26:20.970Z,88.87
2022-09-12T04:28:48.758Z,89.43
2022-09-12T04:31:19.988Z,89.27
2022-09-12T04:33:47.383Z,88.89
2022-09-12T04:36:17.816Z,89.65
2022-09-12T04:38:47.139Z,89.32
2022-09-12T04:41:26.176Z,88.84
2022-09-12T04:44:01.215Z,88.73
2022-09-12T04:46:30.096Z,89.07
2022-09-12T04:48:57.938Z,89.16
2022-09-12T04:51:30.204Z,89.23
2022-09-12T04:53:59.927Z,89.21
2022-09-12T04:56:28.949Z,90.40
2022-09-12T04:59:00.614Z,89.71
2022-09-12T05:01:29.788Z,89.42
2022-09-12T05:03:59.806Z,89.01
2022-09-12T05:06:30.167Z,89.26
2022-09-12T05:08:58.532Z,87.93
2022-09-12T05:11:46.873Z,88.67
2022-09-12T05:14:16.954Z,88.37
2022-09-12T05:16:48.557Z,89.10
2022-09-12T05:19:17.371Z,88.43
2022-09-12T05:21:44.585Z,89.11
2022-09-12T05:24:11.763Z,89.01
2022-09-12T05:26:38.969Z,88.60
2022-09-12T05:29:07.159Z,87.81
2022-09-12T05:31:34.980Z,86.42
2022-09-12T05:34:06.985Z,86.10
2022-09-12T05:36:34.230Z,85.38
2022-09-12T05:39:01.635Z,85.44
2022-09-12T05:41:30.937Z,86.36
2022-09-12T05:44:00.704Z,86.55
2022-09-12T05:46:30.716Z,85.42
2022-09-12T05:49:02.389Z,84.67
2022-09-12T05:51:34.547Z,84.73
2022-09-12T05:54:05.773Z,84.21
2022-09-12T05:56:34.923Z,83.60
2022-09-12T05:59:04.733Z,82.92
2022-09-12T06:01:33.342Z,82.78
2022-09-12T06:04:04.620Z,80.91
2022-09-12T06:06:35.018Z,79.92
2022-09-12T06:09:04.308Z,79.70
2022-09-12T06:11:36.122Z,80.13
2022-09-12T06:14:03.920Z,80.06
2022-09-12T06:16:33.518Z,79.94
2022-09-12T06:19:03.653Z,78.71
2022-09-12T06:21:31.329Z,78.08
2022-09-12T06:23:59.196Z,77.98
2022-09-12T06:26:27.591Z,77.52
2022-09-12T06:28:56.683Z,77.56
2022-09-12T06:31:27.887Z,77.89
2022-09-12T06:33:56.923Z,77.08
2022-09-12T06:36:28.427Z,77.09
2022-09-12T06:39:01.235Z,76.74
2022-09-12T06:41:29.877Z,76.77
2022-09-12T06:43:58.627Z,74.74
2022-09-12T06:46:26.184Z,75.17
2022-09-12T06:48:55.756Z,73.97
2022-09-12T06:51:23.452Z,73.53
2022-09-12T06:53:50.853Z,72.56
2022-09-12T06:56:19.988Z,73.17
2022-09-12T06:58:48.751Z,73.27
2022-09-12T07:01:22.514Z,72.80
2022-09-12T07:03:59.318Z,72.09
2022-09-12T07:06:32.704Z,72.63
2022-09-12T07:09:00.983Z,71.52
2022-09-12T07:11:31.874Z,71.36
2022-09-12T07:14:01.592Z,70.49
2022-09-12T07:16:30.423Z,71.03
2022-09-12T07:19:03.352Z,70.41
2022-09-12T07:21:46.807Z,70.22
2022-09-12T07:24:22.121Z,70.43
2022-09-12T07:26:51.595Z,69.04
2022-09-12T07:29:35.966Z,68.56
2022-09-12T07:32:05.874Z,67.56
2022-09-12T07:34:33.959Z,66.62
2022-09-12T07:37:01.183Z,66.61
2022-09-12T07:39:28.406Z,66.95
2022-09-12T07:41:55.943Z,67.29
2022-09-12T07:44:23.692Z,66.88
2022-09-12T07:46:50.958Z,67.35
2022-09-12T07:49:18.251Z,67.28
2022-09-12T07:51:45.926Z,65.57
2022-09-12T07:54:13.341Z,66.29
2022-09-12T07:56:40.844Z,65.20
2022-09-12T07:59:09.734Z,63.77
2022-09-12T08:01:45.710Z,63.01
2022-09-12T08:04:14.618Z,63.04
2022-09-12T08:06:41.927Z,63.04
2022-09-12T08:09:09.273Z,60.51
2022-09-12T08:11:36.526Z,59.64
2022-09-12T08:14:05.628Z,59.40
2022-09-12T08:16:33.972Z,58.06
2022-09-12T08:19:02.972Z,57.26
2022-09-12T08:21:33.139Z,59.79
2022-09-12T08:24:04.062Z,59.54
2022-09-12T08:26:32.937Z,59.63
2022-09-12T08:29:00.899Z,58.59
2022-09-12T08:31:28.571Z,59.73
2022-09-12T08:33:57.535Z,58.78
2022-09-12T08:36:26.792Z,58.81
2022-09-12T08:39:00.586Z,58.40
2022-09-12T08:41:44.288Z,58.52
2022-09-12T08:44:26.349Z,58.95
2022-09-12T08:46:59.515Z,58.03
2022-09-12T08:49:29.749Z,57.36
2022-09-12T08:52:02.734Z,55.92
2022-09-12T08:54:31.632Z,54.90
2022-09-12T08:57:04.087Z,54.19
2022-09-12T08:59:38.259Z,53.43
2022-09-12T09:02:34.437Z,53.88
2022-09-12T09:05:08.159Z,54.99
2022-09-12T09:07:44.649Z,54.79
2022-09-12T09:10:40.169Z,52.89
2022-09-12T09:13:39.851Z,51.61
2022-09-12T09:16:21.516Z,51.01
2022-09-12T09:18:50.559Z,50.96
2022-09-12T09:21:30.254Z,50.47
2022-09-12T09:24:04.029Z,50.35
2022-09-12T09:26:56.483Z,50.21
2022-09-12T09:29:36.966Z,51.28
2022-09-12T09:32:14.321Z,50.38
2022-09-12T09:34:41.793Z,50.74
2022-09-12T09:37:30.138Z,51.67
2022-09-12T09:40:23.332Z,50.35
2022-09-12T09:43:29.308Z,51.80
2022-09-12T09:46:00.465Z,50.46
2022-09-12T09:48:29.812Z,49.90
2022-09-12T09:51:00.404Z,49.28
2022-09-12T09:53:53.795Z,49.03
2022-09-12T09:56:26.798Z,49.68
2022-09-12T09:58:54.126Z,50.88
2022-09-12T10:01:21.386Z,48.73
2022-09-12T10:03:54.044Z,49.90
2022-09-12T10:06:23.428Z,49.22
2022-09-12T10:08:50.853Z,47.94
2022-09-12T10:11:27.003Z,47.23
2022-09-12T10:13:57.670Z,47.70
2022-09-12T10:16:27.953Z,47.10
2022-09-12T10:18:59.882Z,46.77
2022-09-12T10:21:45.472Z,46.62
2022-09-12T10:24:23.969Z,46.06
2022-09-12T10:26:56.969Z,46.58
2022-09-12T10:29:32.122Z,46.52
2022-09-12T10:32:03.588Z,45.87
2022-09-12T10:34:42.140Z,46.00
2022-09-12T10:37:17.724Z,45.59
2022-09-12T10:39:54.419Z,45.31
2022-09-12T10:42:48.293Z,45.71
2022-09-12T10:45:44.754Z,44.31
2022-09-12T10:48:34.185Z,43.09
2022-09-12T10:51:02.747Z,43.37
2022-09-12T10:53:43.109Z,43.01
2022-09-12T10:56:22.924Z,42.10
2022-09-12T10:59:08.560Z,42.10
2022-09-12T11:01:48.740Z,41.94
2022-09-12T11:04:34.456Z,41.99
2022-09-12T11:07:04.445Z,41.34
2022-09-12T11:10:03.069Z,41.49
2022-09-12T11:12:47.018Z,40.72
2022-09-12T11:15:32.677Z,40.75
2022-09-12T11:18:24.812Z,39.52
2022-09-12T11:20:57.571Z,41.09
2022-09-12T11:23:59.949Z,40.15
2022-09-12T11:26:59.867Z,39.79
2022-09-12T11:29:54.903Z,40.04
2022-09-12T11:32:43.262Z,42.20
2022-09-12T11:35:19.452Z,41.28
2022-09-12T11:38:02.704Z,40.14
2022-09-12T11:40:44.426Z,40.40
2022-09-12T11:43:24.012Z,41.09
2022-09-12T11:45:53.008Z,40.68
2022-09-12T11:48:44.844Z,40.51
2022-09-12T11:51:33.940Z,41.19
2022-09-12T11:54:29.754Z,41.18
2022-09-12T11:57:20.866Z,41.28
2022-09-12T11:59:54.540Z,39.36
2022-09-12T12:02:28.756Z,42.38
2022-09-12T12:05:04.894Z,40.45
2022-09-12T12:07:45.455Z,41.41
2022-09-12T12:10:31.660Z,38.09
2022-09-12T12:13:02.777Z,39.60
2022-09-12T12:15:31.798Z,39.53
2022-09-12T12:18:08.423Z,37.88
2022-09-12T12:20:36.405Z,38.98
2022-09-12T12:23:04.143Z,38.85
2022-09-12T12:25:51.964Z,39.75
2022-09-12T12:28:50.680Z,39.62
2022-09-12T12:31:18.977Z,38.49
2022-09-12T12:33:46.187Z,37.83
2022-09-12T12:36:38.607Z,36.48
2022-09-12T12:39:33.703Z,37.28
2022-09-12T12:42:01.679Z,36.83
2022-09-12T12:44:44.262Z,35.30
2022-09-12T12:47:19.830Z,36.85
2022-09-12T12:50:03.078Z,33.19
2022-09-12T12:52:33.436Z,33.59
2022-09-12T12:55:02.211Z,34.64
2022-09-12T12:57:48.513Z,35.20
2022-09-12T13:00:24.452Z,35.17
2022-09-12T13:02:59.731Z,34.76
2022-09-12T13:05:29.282Z,35.28
2022-09-12T13:08:07.966Z,34.75
2022-09-12T13:10:36.982Z,38.33
2022-09-12T13:13:07.028Z,35.19
2022-09-12T13:15:37.097Z,35.81
2022-09-12T13:18:13.772Z,33.89
2022-09-12T13:20:59.961Z,33.58
2022-09-12T13:23:30.607Z,34.50
2022-09-12T13:26:00.584Z,33.42
2022-09-12T13:28:31.694Z,34.21
2022-09-12T13:31:23.411Z,35.28
2022-09-12T13:34:04.265Z,34.16
2022-09-12T13:36:51.286Z,34.85
2022-09-12T13:39:35.720Z,34.67
2022-09-12T13:42:15.150Z,34.97
2022-09-12T13:44:49.671Z,34.77
2022-09-12T13:47:41.377Z,33.45
2022-09-12T13:50:16.718Z,33.16
2022-09-12T13:52:57.169Z,32.85
2022-09-12T13:55:37.669Z,34.19
2022-09-12T13:58:16.551Z,36.37
2022-09-12T14:00:45.023Z,35.14
2022-09-12T14:03:50.651Z,34.18
2022-09-12T14:06:19.103Z,34.02
2022-09-12T14:08:49.794Z,34.21
2022-09-12T14:11:28.643Z,35.13
2022-09-12T14:13:56.997Z,35.57
2022-09-12T14:16:27.388Z,33.37
2022-09-12T14:18:54.959Z,32.85
2022-09-12T14:21:36.475Z,33.55
2022-09-12T14:24:06.764Z,33.15
2022-09-12T14:26:36.580Z,34.42
2022-09-12T14:29:08.959Z,34.66
2022-09-12T14:31:38.466Z,33.35
2022-09-12T14:34:15.011Z,32.05
2022-09-12T14:36:52.555Z,33.48
2022-09-12T14:39:43.111Z,34.21
2022-09-12T14:42:17.916Z,33.70
2022-09-12T14:44:58.316Z,34.09
2022-09-12T14:47:28.213Z,34.64
2022-09-12T14:49:55.657Z,35.92
2022-09-12T14:52:30.374Z,34.99
2022-09-12T14:55:19.756Z,32.72
2022-09-12T14:57:47.916Z,34.11
2022-09-12T15:00:22.269Z,33.21
2022-09-12T15:02:50.927Z,34.62
2022-09-12T15:05:24.623Z,33.00
2022-09-12T15:07:53.802Z,35.29
2022-09-12T15:10:25.743Z,33.32
2022-09-12T15:13:14.329Z,32.76
2022-09-12T15:15:44.540Z,34.54
2022-09-12T15:18:12.310Z,33.35
2022-09-12T15:20:42.568Z,34.44
2022-09-12T15:23:31.116Z,34.50
2022-09-12T15:25:58.310Z,33.01
2022-09-12T15:28:26.842Z,33.42
2022-09-12T15:30:56.727Z,31.31
2022-09-12T15:33:25.156Z,32.27
2022-09-12T15:35:53.383Z,34.34
2022-09-12T15:38:26.184Z,33.47
2022-09-12T15:40:54.600Z,34.60
2022-09-12T15:43:23.154Z,35.18
2022-09-12T15:45:51.789Z,35.03
2022-09-12T15:48:21.045Z,36.35
2022-09-12T15:50:48.541Z,35.68
2022-09-12T15:53:16.942Z,37.01
2022-09-12T15:55:44.905Z,36.59
2022-09-12T15:58:12.833Z,37.76
2022-09-12T16:00:40.228Z,37.03
2022-09-12T16:03:24.040Z,36.26
2022-09-12T16:05:57.086Z,38.24
2022-09-12T16:08:25.046Z,37.42
2022-09-12T16:10:57.314Z,36.58
2022-09-12T16:13:25.472Z,37.61
2022-09-12T16:15:56.182Z,36.88
2022-09-12T16:18:23.653Z,38.09
2022-09-12T16:20:54.866Z,37.42
2022-09-12T16:23:22.785Z,37.33
2022-09-12T16:26:00.659Z,38.16
2022-09-12T16:28:28.086Z,38.29
2022-09-12T16:31:03.145Z,38.40
2022-09-12T16:33:31.636Z,39.54
2022-09-12T16:36:13.334Z,38.65
2022-09-12T16:38:43.727Z,38.67
2022-09-12T16:41:11.817Z,39.03
2022-09-12T16:43:39.448Z,39.15
2022-09-12T16:46:18.490Z,38.75
2022-09-12T16:48:52.599Z,38.90
2022-09-12T16:51:28.545Z,39.54
2022-09-12T16:53:55.792Z,39.76
2022-09-12T16:56:23.399Z,40.25
2022-09-12T16:58:50.902Z,40.31
2022-09-12T17:01:21.693Z,39.76
2022-09-12T17:03:53.436Z,39.59
2022-09-12T17:06:20.627Z,39.69
2022-09-12T17:08:50.684Z,39.65
2022-09-12T17:11:26.870Z,39.76
2022-09-12T17:14:11.738Z,39.67
2022-09-12T17:16:42.733Z,40.30
2022-09-12T17:19:30.200Z,40.57
2022-09-12T17:21:57.854Z,42.33
2022-09-12T17:24:25.500Z,42.97
2022-09-12T17:26:53.695Z,42.50
2022-09-12T17:29:21.205Z,43.09
2022-09-12T17:31:48.853Z,43.29
2022-09-12T17:34:17.605Z,42.88
2022-09-12T17:36:45.446Z,45.45
2022-09-12T17:39:13.867Z,45.14
2022-09-12T17:41:42.735Z,46.47
2022-09-12T17:44:15.054Z,47.41
2022-09-12T17:46:43.019Z,47.60
2022-09-12T17:49:15.461Z,48.96
2022-09-12T17:51:43.860Z,50.00
2022-09-12T17:54:16.120Z,50.97
2022-09-12T17:56:45.494Z,51.77
2022-09-12T17:59:19.171Z,52.41
2022-09-12T18:02:05.401Z,53.27
2022-09-12T18:04:32.662Z,53.83
2022-09-12T18:07:00.461Z,54.26
2022-09-12T18:09:28.304Z,54.79
2022-09-12T18:11:55.998Z,55.15
2022-09-12T18:14:23.750Z,55.13
2022-09-12T18:16:51.003Z,55.74
2022-09-12T18:19:18.292Z,56.11
2022-09-12T18:21:45.780Z,56.55
2022-09-12T18:24:13.148Z,56.73
2022-09-12T18:26:40.501Z,56.81
2022-09-12T18:29:07.870Z,57.34
2022-09-12T18:31:35.278Z,57.50
2022-09-12T18:34:02.931Z,58.10
2022-09-12T18:36:30.803Z,58.11
2022-09-12T18:38:59.313Z,58.25
2022-09-12T18:41:28.784Z,58.72
2022-09-12T18:44:00.950Z,59.06
2022-09-12T18:46:30.291Z,59.42
2022-09-12T18:48:58.343Z,59.60
2022-09-12T18:51:31.565Z,60.07
2022-09-12T18:54:01.745Z,60.00
2022-09-12T18:56:34.415Z,60.53
2022-09-12T18:59:03.663Z,60.59
2022-09-12T19:01:36.252Z,60.92
2022-09-12T19:04:07.641Z,60.83
2022-09-12T19:06:38.547Z,61.12
2022-09-12T19:09:08.326Z,61.03
2022-09-12T19:11:37.831Z,61.02
2022-09-12T19:14:05.727Z,61.56
2022-09-12T19:16:33.628Z,61.33
2022-09-12T19:19:02.550Z,61.29
2022-09-12T19:21:31.049Z,61.33
2022-09-12T19:24:01.274Z,61.77
2022-09-12T19:26:29.044Z,61.46
2022-09-12T19:28:56.996Z,61.72
2022-09-12T19:31:24.917Z,61.42
2022-09-12T19:33:52.443Z,62.42
2022-09-12T19:36:43.762Z,62.34
2022-09-12T19:39:09.583Z,63.06
2022-09-12T19:41:36.928Z,62.42
2022-09-12T19:44:05.191Z,63.52
2022-09-12T19:46:32.647Z,63.69
2022-09-12T19:49:00.011Z,63.60
2022-09-12T19:51:27.295Z,63.47
2022-09-12T19:53:54.505Z,63.37
2022-09-12T19:56:21.834Z,64.17
2022-09-12T19:58:55.306Z,64.43
2022-09-12T20:01:28.193Z,64.48
2022-09-12T20:03:59.185Z,64.28
2022-09-12T20:06:27.496Z,65.10
2022-09-12T20:08:55.659Z,64.58
2022-09-12T20:11:24.394Z,64.81
2022-09-12T20:13:51.961Z,64.47
2022-09-12T20:16:22.666Z,64.42
2022-09-12T20:18:58.368Z,64.93
2022-09-12T20:21:35.837Z,64.96
2022-09-12T20:24:20.882Z,64.89
2022-09-12T20:26:48.267Z,65.12
2022-09-12T20:29:15.673Z,64.94
2022-09-12T20:31:43.811Z,65.70
2022-09-12T20:34:15.603Z,65.30
2022-09-12T20:36:42.852Z,64.96
2022-09-12T20:39:15.299Z,65.25
2022-09-12T20:41:42.532Z,65.73
2022-09-12T20:44:10.112Z,65.27
2022-09-12T20:46:37.490Z,65.16
2022-09-12T20:49:04.833Z,65.40
2022-09-12T20:51:32.164Z,65.56
2022-09-12T20:54:05.115Z,66.23
2022-09-12T20:56:34.715Z,66.55
2022-09-12T20:59:01.971Z,66.59
2022-09-12T21:01:31.263Z,66.27
2022-09-12T21:04:00.745Z,65.60
2022-09-12T21:06:28.401Z,65.60
2022-09-12T21:09:00.544Z,66.12
2022-09-12T21:11:29.198Z,66.46
2022-09-12T21:13:56.692Z,66.01
2022-09-12T21:16:24.305Z,66.09
2022-09-12T21:18:57.092Z,66.10
2022-09-12T21:21:24.870Z,66.49
2022-09-12T21:23:54.062Z,66.57
2022-09-12T21:26:21.444Z,67.15
2022-09-12T21:28:48.889Z,67.41
2022-09-12T21:31:16.344Z,67.26
2022-09-12T21:33:43.606Z,67.64
2022-09-12T21:36:10.799Z,67.61
2022-09-12T21:38:38.188Z,68.93
2022-09-12T21:41:07.820Z,69.64
2022-09-12T21:43:35.884Z,69.49
2022-09-12T21:46:03.958Z,69.80
2022-09-12T21:48:31.639Z,70.62
2022-09-12T21:50:59.505Z,70.99
2022-09-12T21:53:27.264Z,70.32
2022-09-12T21:55:54.811Z,70.55
2022-09-12T21:58:22.019Z,70.77
2022-09-12T22:00:49.652Z,71.28
2022-09-12T22:03:17.372Z,71.42
2022-09-12T22:05:44.568Z,71.26
2022-09-12T22:08:12.083Z,72.18
2022-09-12T22:10:40.171Z,72.39
2022-09-12T22:13:07.383Z,72.65
2022-09-12T22:15:41.821Z,72.47
2022-09-12T22:18:09.099Z,71.48
2022-09-12T22:20:36.324Z,71.62
2022-09-12T22:23:24.833Z,70.56
2022-09-12T22:25:57.216Z,71.38
2022-09-12T22:28:25.153Z,70.84
2022-09-12T22:30:54.404Z,71.03
2022-09-12T22:33:21.960Z,70.20
2022-09-12T22:35:49.216Z,69.96
2022-09-12T22:38:16.424Z,69.83
2022-09-12T22:40:43.967Z,70.28
2022-09-12T22:43:11.792Z,69.92
2022-09-12T22:45:41.831Z,69.72
2022-09-12T22:48:09.430Z,70.69
2022-09-12T22:50:36.732Z,71.80
2022-09-12T22:53:04.303Z,72.00
2022-09-12T22:55:31.684Z,72.30
2022-09-12T22:57:58.847Z,72.82
2022-09-12T23:00:28.005Z,73.05
2022-09-12T23:05:23.588Z,72.18
2022-09-12T23:07:51.114Z,72.27
2022-09-12T23:10:18.364Z,72.82
2022-09-12T23:12:45.706Z,72.83
2022-09-12T23:15:13.081Z,72.64
2022-09-12T23:17:40.517Z,72.60
2022-09-12T23:20:08.236Z,73.13
2022-09-12T23:22:37.119Z,73.74
2022-09-12T23:25:04.643Z,74.02
2022-09-12T23:27:31.846Z,74.40
2022-09-12T23:29:59.116Z,74.35
2022-09-12T23:32:26.303Z,74.32
2022-09-12T23:34:53.480Z,73.40
2022-09-12T23:37:21.679Z,73.48
2022-09-12T23:39:49.689Z,74.19
2022-09-12T23:42:17.476Z,74.65
2022-09-12T23:44:44.680Z,74.26
2022-09-12T23:47:11.925Z,74.06
2022-09-12T23:49:39.147Z,74.12
2022-09-12T23:52:06.365Z,73.57
2022-09-12T23:54:33.580Z,73.37
2022-09-12T23:57:00.757Z,73.18
2022-09-12T23:59:27.987Z,72.54
